sensor_id;sensor_type;location;lat;lon;timestamp;P1;durP1;ratioP1;P2;durP2;ratioP2
6864;SDS011;3471;49.678;8.388;2023-02-15T00:01:43;45.42;;;29.55;;
6864;SDS011;3471;49.678;8.388;2023-02-15T00:04:09;52.40;;;26.83;;
6864;SDS011;3471;49.678;8.388;2023-02-15T00:06:38;53.22;;;29.60;;
6864;SDS011;3471;49.678;8.388;2023-02-15T00:09:03;38.28;;;24.67;;
6864;SDS011;3471;49.678;8.388;2023-02-15T00:11:29;56.37;;;25.57;;
6864;SDS011;3471;49.678;8.388;2023-02-15T00:16:44;51.63;;;26.80;;
6864;SDS011;3471;49.678;8.388;2023-02-15T00:19:11;56.70;;;27.20;;
6864;SDS011;3471;49.678;8.388;2023-02-15T00:21:39;53.72;;;28.58;;
6864;SDS011;3471;49.678;8.388;2023-02-15T00:24:06;56.58;;;28.17;;
6864;SDS011;3471;49.678;8.388;2023-02-15T00:26:33;53.03;;;29.63;;
6864;SDS011;3471;49.678;8.388;2023-02-15T00:28:59;52.65;;;26.85;;
6864;SDS011;3471;49.678;8.388;2023-02-15T00:31:25;48.25;;;26.25;;
6864;SDS011;3471;49.678;8.388;2023-02-15T00:33:55;42.67;;;23.85;;
6864;SDS011;3471;49.678;8.388;2023-02-15T00:36:25;44.88;;;25.50;;
6864;SDS011;3471;49.678;8.388;2023-02-15T00:38:51;52.40;;;30.07;;
6864;SDS011;3471;49.678;8.388;2023-02-15T00:41:16;46.77;;;26.37;;
6864;SDS011;3471;49.678;8.388;2023-02-15T00:43:42;52.20;;;26.53;;
6864;SDS011;3471;49.678;8.388;2023-02-15T00:46:07;66.60;;;31.23;;
6864;SDS011;3471;49.678;8.388;2023-02-15T00:48:33;65.40;;;30.40;;
6864;SDS011;3471;49.678;8.388;2023-02-15T00:50:59;50.45;;;24.88;;
6864;SDS011;3471;49.678;8.388;2023-02-15T00:53:26;48.97;;;26.55;;
6864;SDS011;3471;49.678;8.388;2023-02-15T00:55:52;48.50;;;31.33;;
6864;SDS011;3471;49.678;8.388;2023-02-15T00:58:18;51.42;;;23.95;;
6864;SDS011;3471;49.678;8.388;2023-02-15T01:00:44;53.93;;;27.50;;
6864;SDS011;3471;49.678;8.388;2023-02-15T01:03:11;42.63;;;25.63;;
6864;SDS011;3471;49.678;8.388;2023-02-15T01:05:38;45.17;;;27.00;;
6864;SDS011;3471;49.678;8.388;2023-02-15T01:08:04;50.13;;;27.55;;
6864;SDS011;3471;49.678;8.388;2023-02-15T01:10:29;37.57;;;24.83;;
6864;SDS011;3471;49.678;8.388;2023-02-15T01:12:55;51.58;;;26.83;;
6864;SDS011;3471;49.678;8.388;2023-02-15T01:15:22;37.63;;;23.85;;
6864;SDS011;3471;49.678;8.388;2023-02-15T01:17:47;38.97;;;23.98;;
6864;SDS011;3471;49.678;8.388;2023-02-15T01:20:21;42.08;;;24.70;;
6864;SDS011;3471;49.678;8.388;2023-02-15T01:22:50;43.97;;;24.27;;
6864;SDS011;3471;49.678;8.388;2023-02-15T01:25:17;44.95;;;25.60;;
6864;SDS011;3471;49.678;8.388;2023-02-15T01:27:43;44.05;;;22.83;;
6864;SDS011;3471;49.678;8.388;2023-02-15T01:30:09;40.53;;;25.70;;
6864;SDS011;3471;49.678;8.388;2023-02-15T01:32:35;41.75;;;25.00;;
6864;SDS011;3471;49.678;8.388;2023-02-15T01:35:01;47.93;;;26.33;;
6864;SDS011;3471;49.678;8.388;2023-02-15T01:37:29;44.70;;;22.55;;
6864;SDS011;3471;49.678;8.388;2023-02-15T01:39:56;48.67;;;24.27;;
6864;SDS011;3471;49.678;8.388;2023-02-15T01:42:22;38.97;;;24.13;;
6864;SDS011;3471;49.678;8.388;2023-02-15T01:50:19;42.40;;;25.23;;
6864;SDS011;3471;49.678;8.388;2023-02-15T01:52:55;42.58;;;22.85;;
6864;SDS011;3471;49.678;8.388;2023-02-15T01:55:29;50.88;;;24.35;;
6864;SDS011;3471;49.678;8.388;2023-02-15T01:58:04;46.25;;;26.42;;
6864;SDS011;3471;49.678;8.388;2023-02-15T02:00:31;39.90;;;23.02;;
6864;SDS011;3471;49.678;8.388;2023-02-15T02:02:58;48.13;;;26.10;;
6864;SDS011;3471;49.678;8.388;2023-02-15T02:05:24;47.90;;;24.57;;
6864;SDS011;3471;49.678;8.388;2023-02-15T02:07:50;36.75;;;20.77;;
6864;SDS011;3471;49.678;8.388;2023-02-15T02:10:19;38.38;;;23.73;;
6864;SDS011;3471;49.678;8.388;2023-02-15T02:12:47;52.03;;;24.45;;
6864;SDS011;3471;49.678;8.388;2023-02-15T02:15:15;46.90;;;30.13;;
6864;SDS011;3471;49.678;8.388;2023-02-15T02:23:18;80.78;;;32.20;;
6864;SDS011;3471;49.678;8.388;2023-02-15T02:34:03;37.65;;;22.27;;
6864;SDS011;3471;49.678;8.388;2023-02-15T02:36:57;39.15;;;25.38;;
6864;SDS011;3471;49.678;8.388;2023-02-15T02:42:21;35.03;;;20.23;;
6864;SDS011;3471;49.678;8.388;2023-02-15T02:44:54;36.60;;;20.92;;
6864;SDS011;3471;49.678;8.388;2023-02-15T02:47:34;39.60;;;22.83;;
6864;SDS011;3471;49.678;8.388;2023-02-15T02:50:09;33.60;;;21.90;;
6864;SDS011;3471;49.678;8.388;2023-02-15T02:52:45;42.90;;;22.63;;
6864;SDS011;3471;49.678;8.388;2023-02-15T02:57:52;42.60;;;23.77;;
6864;SDS011;3471;49.678;8.388;2023-02-15T03:00:23;50.08;;;23.63;;
6864;SDS011;3471;49.678;8.388;2023-02-15T03:02:54;43.75;;;22.90;;
6864;SDS011;3471;49.678;8.388;2023-02-15T03:05:29;35.90;;;21.85;;
6864;SDS011;3471;49.678;8.388;2023-02-15T03:07:56;42.47;;;21.90;;
6864;SDS011;3471;49.678;8.388;2023-02-15T03:10:30;40.13;;;21.35;;
6864;SDS011;3471;49.678;8.388;2023-02-15T03:12:57;40.70;;;22.70;;
6864;SDS011;3471;49.678;8.388;2023-02-15T03:15:24;46.65;;;25.88;;
6864;SDS011;3471;49.678;8.388;2023-02-15T03:18:14;45.58;;;25.50;;
6864;SDS011;3471;49.678;8.388;2023-02-15T03:20:42;35.15;;;21.60;;
6864;SDS011;3471;49.678;8.388;2023-02-15T03:23:11;39.05;;;22.33;;
6864;SDS011;3471;49.678;8.388;2023-02-15T03:25:41;47.35;;;24.50;;
6864;SDS011;3471;49.678;8.388;2023-02-15T03:28:11;41.95;;;23.50;;
6864;SDS011;3471;49.678;8.388;2023-02-15T03:30:43;37.20;;;21.17;;
6864;SDS011;3471;49.678;8.388;2023-02-15T03:33:11;42.97;;;24.20;;
6864;SDS011;3471;49.678;8.388;2023-02-15T03:38:20;46.58;;;24.45;;
6864;SDS011;3471;49.678;8.388;2023-02-15T03:40:54;42.42;;;22.60;;
6864;SDS011;3471;49.678;8.388;2023-02-15T03:48:54;36.53;;;20.38;;
6864;SDS011;3471;49.678;8.388;2023-02-15T03:51:29;53.05;;;22.92;;
6864;SDS011;3471;49.678;8.388;2023-02-15T03:56:29;50.67;;;21.80;;
6864;SDS011;3471;49.678;8.388;2023-02-15T03:58:55;43.53;;;22.52;;
6864;SDS011;3471;49.678;8.388;2023-02-15T04:01:42;39.80;;;24.97;;
6864;SDS011;3471;49.678;8.388;2023-02-15T04:04:25;34.22;;;22.27;;
6864;SDS011;3471;49.678;8.388;2023-02-15T04:06:59;47.67;;;24.13;;
6864;SDS011;3471;49.678;8.388;2023-02-15T04:09:25;44.95;;;23.10;;
6864;SDS011;3471;49.678;8.388;2023-02-15T04:12:09;40.30;;;22.42;;
6864;SDS011;3471;49.678;8.388;2023-02-15T04:14:35;50.38;;;23.00;;
6864;SDS011;3471;49.678;8.388;2023-02-15T04:17:19;42.65;;;22.27;;
6864;SDS011;3471;49.678;8.388;2023-02-15T04:19:45;41.50;;;21.05;;
6864;SDS011;3471;49.678;8.388;2023-02-15T04:22:29;42.55;;;22.90;;
6864;SDS011;3471;49.678;8.388;2023-02-15T04:25:13;41.70;;;19.40;;
6864;SDS011;3471;49.678;8.388;2023-02-15T04:27:41;38.63;;;23.15;;
6864;SDS011;3471;49.678;8.388;2023-02-15T04:30:09;47.40;;;24.48;;
6864;SDS011;3471;49.678;8.388;2023-02-15T04:32:36;43.58;;;20.05;;
6864;SDS011;3471;49.678;8.388;2023-02-15T04:35:02;38.55;;;21.85;;
6864;SDS011;3471;49.678;8.388;2023-02-15T04:37:29;54.45;;;26.20;;
6864;SDS011;3471;49.678;8.388;2023-02-15T04:39:55;50.83;;;25.80;;
6864;SDS011;3471;49.678;8.388;2023-02-15T04:42:21;37.45;;;20.63;;
6864;SDS011;3471;49.678;8.388;2023-02-15T04:44:46;46.63;;;21.43;;
6864;SDS011;3471;49.678;8.388;2023-02-15T04:47:12;48.55;;;21.80;;
6864;SDS011;3471;49.678;8.388;2023-02-15T04:49:37;42.43;;;22.20;;
6864;SDS011;3471;49.678;8.388;2023-02-15T04:52:03;35.88;;;19.77;;
6864;SDS011;3471;49.678;8.388;2023-02-15T04:54:28;41.27;;;22.17;;
6864;SDS011;3471;49.678;8.388;2023-02-15T04:56:54;28.67;;;19.38;;
6864;SDS011;3471;49.678;8.388;2023-02-15T04:59:19;41.80;;;22.47;;
6864;SDS011;3471;49.678;8.388;2023-02-15T05:01:45;30.70;;;18.30;;
6864;SDS011;3471;49.678;8.388;2023-02-15T05:04:11;28.53;;;16.40;;
6864;SDS011;3471;49.678;8.388;2023-02-15T05:06:36;29.42;;;18.25;;
6864;SDS011;3471;49.678;8.388;2023-02-15T05:09:02;30.17;;;18.33;;
6864;SDS011;3471;49.678;8.388;2023-02-15T05:11:27;32.88;;;18.80;;
6864;SDS011;3471;49.678;8.388;2023-02-15T05:13:53;26.17;;;16.42;;
6864;SDS011;3471;49.678;8.388;2023-02-15T05:16:19;31.60;;;19.10;;
6864;SDS011;3471;49.678;8.388;2023-02-15T05:18:44;29.80;;;17.42;;
6864;SDS011;3471;49.678;8.388;2023-02-15T05:21:10;31.37;;;18.17;;
6864;SDS011;3471;49.678;8.388;2023-02-15T05:23:36;27.15;;;17.00;;
6864;SDS011;3471;49.678;8.388;2023-02-15T05:26:01;25.77;;;15.53;;
6864;SDS011;3471;49.678;8.388;2023-02-15T05:28:45;30.77;;;16.23;;
6864;SDS011;3471;49.678;8.388;2023-02-15T05:31:15;27.80;;;16.37;;
6864;SDS011;3471;49.678;8.388;2023-02-15T05:33:43;31.43;;;17.40;;
6864;SDS011;3471;49.678;8.388;2023-02-15T05:36:09;27.50;;;14.85;;
6864;SDS011;3471;49.678;8.388;2023-02-15T05:38:35;27.95;;;17.92;;
6864;SDS011;3471;49.678;8.388;2023-02-15T05:41:02;27.08;;;16.67;;
6864;SDS011;3471;49.678;8.388;2023-02-15T05:43:31;32.83;;;16.52;;
6864;SDS011;3471;49.678;8.388;2023-02-15T05:45:57;27.67;;;13.82;;
6864;SDS011;3471;49.678;8.388;2023-02-15T05:48:24;22.08;;;14.60;;
6864;SDS011;3471;49.678;8.388;2023-02-15T05:53:45;22.10;;;14.55;;
6864;SDS011;3471;49.678;8.388;2023-02-15T05:56:11;22.00;;;15.60;;
6864;SDS011;3471;49.678;8.388;2023-02-15T05:58:40;29.17;;;17.05;;
6864;SDS011;3471;49.678;8.388;2023-02-15T06:01:17;21.65;;;13.63;;
6864;SDS011;3471;49.678;8.388;2023-02-15T06:03:44;26.77;;;14.95;;
6864;SDS011;3471;49.678;8.388;2023-02-15T06:06:10;25.05;;;14.90;;
6864;SDS011;3471;49.678;8.388;2023-02-15T06:08:36;18.03;;;13.97;;
6864;SDS011;3471;49.678;8.388;2023-02-15T06:11:02;21.77;;;14.13;;
6864;SDS011;3471;49.678;8.388;2023-02-15T06:13:29;24.00;;;16.50;;
6864;SDS011;3471;49.678;8.388;2023-02-15T06:15:55;19.98;;;13.30;;
6864;SDS011;3471;49.678;8.388;2023-02-15T06:18:20;24.17;;;15.27;;
6864;SDS011;3471;49.678;8.388;2023-02-15T06:20:46;17.37;;;13.73;;
6864;SDS011;3471;49.678;8.388;2023-02-15T06:23:13;28.38;;;16.80;;
6864;SDS011;3471;49.678;8.388;2023-02-15T06:25:38;27.58;;;13.85;;
6864;SDS011;3471;49.678;8.388;2023-02-15T06:28:04;19.77;;;13.27;;
6864;SDS011;3471;49.678;8.388;2023-02-15T06:30:30;34.47;;;16.50;;
6864;SDS011;3471;49.678;8.388;2023-02-15T06:32:56;28.60;;;15.87;;
6864;SDS011;3471;49.678;8.388;2023-02-15T06:35:22;29.02;;;17.20;;
6864;SDS011;3471;49.678;8.388;2023-02-15T06:37:47;23.87;;;14.60;;
6864;SDS011;3471;49.678;8.388;2023-02-15T06:40:13;28.40;;;18.02;;
6864;SDS011;3471;49.678;8.388;2023-02-15T06:42:40;31.85;;;19.45;;
6864;SDS011;3471;49.678;8.388;2023-02-15T06:45:07;28.05;;;17.15;;
6864;SDS011;3471;49.678;8.388;2023-02-15T06:47:33;24.65;;;16.60;;
6864;SDS011;3471;49.678;8.388;2023-02-15T06:49:59;32.70;;;17.25;;
6864;SDS011;3471;49.678;8.388;2023-02-15T06:52:25;26.57;;;17.67;;
6864;SDS011;3471;49.678;8.388;2023-02-15T06:54:50;29.73;;;17.42;;
6864;SDS011;3471;49.678;8.388;2023-02-15T06:57:18;31.15;;;19.17;;
6864;SDS011;3471;49.678;8.388;2023-02-15T06:59:43;43.33;;;19.90;;
6864;SDS011;3471;49.678;8.388;2023-02-15T07:02:11;38.57;;;17.23;;
6864;SDS011;3471;49.678;8.388;2023-02-15T07:04:37;31.23;;;17.52;;
6864;SDS011;3471;49.678;8.388;2023-02-15T07:07:03;37.03;;;17.27;;
6864;SDS011;3471;49.678;8.388;2023-02-15T07:09:28;36.28;;;17.92;;
6864;SDS011;3471;49.678;8.388;2023-02-15T07:11:54;30.30;;;17.57;;
6864;SDS011;3471;49.678;8.388;2023-02-15T07:14:38;30.57;;;15.47;;
6864;SDS011;3471;49.678;8.388;2023-02-15T07:17:05;29.00;;;17.08;;
6864;SDS011;3471;49.678;8.388;2023-02-15T07:19:31;38.47;;;20.70;;
6864;SDS011;3471;49.678;8.388;2023-02-15T07:21:56;31.10;;;18.63;;
6864;SDS011;3471;49.678;8.388;2023-02-15T07:24:22;31.80;;;15.13;;
6864;SDS011;3471;49.678;8.388;2023-02-15T07:26:48;30.83;;;18.33;;
6864;SDS011;3471;49.678;8.388;2023-02-15T07:29:13;30.70;;;17.83;;
6864;SDS011;3471;49.678;8.388;2023-02-15T07:31:40;32.08;;;19.35;;
6864;SDS011;3471;49.678;8.388;2023-02-15T07:34:08;31.58;;;18.23;;
6864;SDS011;3471;49.678;8.388;2023-02-15T07:36:33;41.60;;;20.03;;
6864;SDS011;3471;49.678;8.388;2023-02-15T07:38:59;32.65;;;20.25;;
6864;SDS011;3471;49.678;8.388;2023-02-15T07:41:24;28.60;;;18.10;;
6864;SDS011;3471;49.678;8.388;2023-02-15T07:43:50;40.20;;;19.13;;
6864;SDS011;3471;49.678;8.388;2023-02-15T07:46:16;35.90;;;18.10;;
6864;SDS011;3471;49.678;8.388;2023-02-15T07:48:42;26.52;;;16.02;;
6864;SDS011;3471;49.678;8.388;2023-02-15T07:51:08;34.13;;;17.75;;
6864;SDS011;3471;49.678;8.388;2023-02-15T07:53:35;35.28;;;19.63;;
6864;SDS011;3471;49.678;8.388;2023-02-15T07:56:02;40.97;;;21.33;;
6864;SDS011;3471;49.678;8.388;2023-02-15T07:58:30;37.30;;;20.52;;
6864;SDS011;3471;49.678;8.388;2023-02-15T08:01:14;40.47;;;20.17;;
6864;SDS011;3471;49.678;8.388;2023-02-15T08:03:40;43.45;;;20.17;;
6864;SDS011;3471;49.678;8.388;2023-02-15T08:06:06;35.47;;;18.98;;
6864;SDS011;3471;49.678;8.388;2023-02-15T08:08:35;49.97;;;24.70;;
6864;SDS011;3471;49.678;8.388;2023-02-15T08:22:05;36.20;;;20.90;;
6864;SDS011;3471;49.678;8.388;2023-02-15T08:24:35;41.15;;;24.05;;
6864;SDS011;3471;49.678;8.388;2023-02-15T08:27:02;48.25;;;20.02;;
6864;SDS011;3471;49.678;8.388;2023-02-15T08:29:29;37.28;;;20.15;;
6864;SDS011;3471;49.678;8.388;2023-02-15T08:31:57;37.33;;;22.23;;
6864;SDS011;3471;49.678;8.388;2023-02-15T08:34:26;38.08;;;16.70;;
6864;SDS011;3471;49.678;8.388;2023-02-15T08:36:53;35.42;;;19.25;;
6864;SDS011;3471;49.678;8.388;2023-02-15T08:39:18;25.83;;;16.90;;
6864;SDS011;3471;49.678;8.388;2023-02-15T08:41:44;40.40;;;16.85;;
6864;SDS011;3471;49.678;8.388;2023-02-15T08:44:11;37.28;;;20.63;;
6864;SDS011;3471;49.678;8.388;2023-02-15T08:46:38;31.70;;;20.90;;
6864;SDS011;3471;49.678;8.388;2023-02-15T08:49:05;44.07;;;24.20;;
6864;SDS011;3471;49.678;8.388;2023-02-15T08:51:36;43.85;;;24.02;;
6864;SDS011;3471;49.678;8.388;2023-02-15T08:54:03;34.25;;;20.48;;
6864;SDS011;3471;49.678;8.388;2023-02-15T08:56:35;37.88;;;20.38;;
6864;SDS011;3471;49.678;8.388;2023-02-15T08:59:02;37.87;;;20.43;;
6864;SDS011;3471;49.678;8.388;2023-02-15T09:01:29;53.20;;;24.55;;
6864;SDS011;3471;49.678;8.388;2023-02-15T09:03:57;44.72;;;23.30;;
6864;SDS011;3471;49.678;8.388;2023-02-15T09:06:24;55.88;;;27.73;;
6864;SDS011;3471;49.678;8.388;2023-02-15T09:08:51;37.47;;;22.50;;
6864;SDS011;3471;49.678;8.388;2023-02-15T09:11:19;36.30;;;21.65;;
6864;SDS011;3471;49.678;8.388;2023-02-15T09:13:51;40.60;;;24.35;;
6864;SDS011;3471;49.678;8.388;2023-02-15T09:16:19;38.97;;;21.05;;
6864;SDS011;3471;49.678;8.388;2023-02-15T09:18:46;42.78;;;24.73;;
6864;SDS011;3471;49.678;8.388;2023-02-15T09:21:12;59.88;;;25.15;;
6864;SDS011;3471;49.678;8.388;2023-02-15T09:23:40;49.40;;;24.25;;
6864;SDS011;3471;49.678;8.388;2023-02-15T09:26:08;44.00;;;26.30;;
6864;SDS011;3471;49.678;8.388;2023-02-15T09:28:35;44.40;;;23.97;;
6864;SDS011;3471;49.678;8.388;2023-02-15T09:31:12;49.47;;;26.53;;
6864;SDS011;3471;49.678;8.388;2023-02-15T09:33:40;41.03;;;25.40;;
6864;SDS011;3471;49.678;8.388;2023-02-15T09:36:12;43.25;;;26.45;;
6864;SDS011;3471;49.678;8.388;2023-02-15T09:38:46;49.05;;;24.70;;
6864;SDS011;3471;49.678;8.388;2023-02-15T09:49:42;36.17;;;21.88;;
6864;SDS011;3471;49.678;8.388;2023-02-15T09:52:32;49.20;;;24.83;;
6864;SDS011;3471;49.678;8.388;2023-02-15T09:55:14;34.47;;;21.00;;
6864;SDS011;3471;49.678;8.388;2023-02-15T10:00:53;30.48;;;21.70;;
6864;SDS011;3471;49.678;8.388;2023-02-15T10:08:46;39.78;;;24.05;;
6864;SDS011;3471;49.678;8.388;2023-02-15T10:19:45;42.05;;;24.83;;
6864;SDS011;3471;49.678;8.388;2023-02-15T10:28:20;29.10;;;20.92;;
6864;SDS011;3471;49.678;8.388;2023-02-15T10:31:02;35.25;;;22.42;;
6864;SDS011;3471;49.678;8.388;2023-02-15T10:33:39;36.42;;;23.55;;
6864;SDS011;3471;49.678;8.388;2023-02-15T10:39:12;34.40;;;20.30;;
6864;SDS011;3471;49.678;8.388;2023-02-15T10:41:53;40.22;;;21.08;;
6864;SDS011;3471;49.678;8.388;2023-02-15T10:44:30;35.92;;;19.60;;
6864;SDS011;3471;49.678;8.388;2023-02-15T10:58:47;27.40;;;17.92;;
6864;SDS011;3471;49.678;8.388;2023-02-15T11:01:27;26.65;;;17.45;;
6864;SDS011;3471;49.678;8.388;2023-02-15T11:04:04;31.05;;;20.25;;
6864;SDS011;3471;49.678;8.388;2023-02-15T11:06:39;30.08;;;18.45;;
6864;SDS011;3471;49.678;8.388;2023-02-15T11:09:19;29.00;;;16.95;;
6864;SDS011;3471;49.678;8.388;2023-02-15T11:11:56;28.67;;;17.23;;
6864;SDS011;3471;49.678;8.388;2023-02-15T11:14:43;26.63;;;17.43;;
6864;SDS011;3471;49.678;8.388;2023-02-15T11:17:26;27.25;;;17.00;;
6864;SDS011;3471;49.678;8.388;2023-02-15T11:20:15;22.85;;;16.75;;
6864;SDS011;3471;49.678;8.388;2023-02-15T11:22:41;25.73;;;17.08;;
6864;SDS011;3471;49.678;8.388;2023-02-15T11:25:17;28.90;;;18.80;;
6864;SDS011;3471;49.678;8.388;2023-02-15T11:27:48;28.30;;;18.50;;
6864;SDS011;3471;49.678;8.388;2023-02-15T11:30:15;24.10;;;16.00;;
6864;SDS011;3471;49.678;8.388;2023-02-15T11:32:46;25.85;;;16.10;;
6864;SDS011;3471;49.678;8.388;2023-02-15T11:35:29;28.35;;;17.20;;
6864;SDS011;3471;49.678;8.388;2023-02-15T11:40:35;28.02;;;19.05;;
6864;SDS011;3471;49.678;8.388;2023-02-15T11:43:13;31.30;;;16.90;;
6864;SDS011;3471;49.678;8.388;2023-02-15T11:45:45;24.88;;;17.08;;
6864;SDS011;3471;49.678;8.388;2023-02-15T11:48:12;22.92;;;14.98;;
6864;SDS011;3471;49.678;8.388;2023-02-15T11:50:39;27.35;;;19.48;;
6864;SDS011;3471;49.678;8.388;2023-02-15T11:53:12;27.77;;;19.60;;
6864;SDS011;3471;49.678;8.388;2023-02-15T11:55:45;34.70;;;18.88;;
6864;SDS011;3471;49.678;8.388;2023-02-15T12:00:44;24.30;;;18.60;;
6864;SDS011;3471;49.678;8.388;2023-02-15T12:03:14;29.02;;;18.30;;
6864;SDS011;3471;49.678;8.388;2023-02-15T12:05:44;26.45;;;17.98;;
6864;SDS011;3471;49.678;8.388;2023-02-15T12:08:15;28.13;;;18.98;;
6864;SDS011;3471;49.678;8.388;2023-02-15T12:11:08;34.53;;;19.48;;
6864;SDS011;3471;49.678;8.388;2023-02-15T12:13:37;28.20;;;21.35;;
6864;SDS011;3471;49.678;8.388;2023-02-15T12:16:26;32.92;;;20.55;;
6864;SDS011;3471;49.678;8.388;2023-02-15T12:18:57;32.58;;;23.50;;
6864;SDS011;3471;49.678;8.388;2023-02-15T12:21:26;32.95;;;22.77;;
6864;SDS011;3471;49.678;8.388;2023-02-15T12:23:55;49.95;;;26.52;;
6864;SDS011;3471;49.678;8.388;2023-02-15T12:26:26;30.33;;;23.00;;
6864;SDS011;3471;49.678;8.388;2023-02-15T12:29:07;37.13;;;20.63;;
6864;SDS011;3471;49.678;8.388;2023-02-15T12:31:43;31.70;;;22.05;;
6864;SDS011;3471;49.678;8.388;2023-02-15T12:34:19;35.05;;;20.63;;
6864;SDS011;3471;49.678;8.388;2023-02-15T12:36:50;39.53;;;25.30;;
6864;SDS011;3471;49.678;8.388;2023-02-15T12:39:26;35.05;;;23.13;;
6864;SDS011;3471;49.678;8.388;2023-02-15T12:44:23;45.08;;;25.88;;
6864;SDS011;3471;49.678;8.388;2023-02-15T12:49:32;45.40;;;30.45;;
6864;SDS011;3471;49.678;8.388;2023-02-15T12:52:03;46.50;;;26.80;;
6864;SDS011;3471;49.678;8.388;2023-02-15T12:54:48;46.13;;;31.80;;
6864;SDS011;3471;49.678;8.388;2023-02-15T12:59:50;49.25;;;28.30;;
6864;SDS011;3471;49.678;8.388;2023-02-15T13:02:21;50.83;;;27.88;;
6864;SDS011;3471;49.678;8.388;2023-02-15T13:08:14;42.88;;;25.55;;
6864;SDS011;3471;49.678;8.388;2023-02-15T13:10:56;46.65;;;26.92;;
6864;SDS011;3471;49.678;8.388;2023-02-15T13:13:25;43.67;;;27.30;;
6864;SDS011;3471;49.678;8.388;2023-02-15T13:15:56;45.15;;;29.52;;
6864;SDS011;3471;49.678;8.388;2023-02-15T13:18:39;53.78;;;31.77;;
6864;SDS011;3471;49.678;8.388;2023-02-15T13:21:11;48.50;;;28.27;;
6864;SDS011;3471;49.678;8.388;2023-02-15T13:24:04;43.20;;;28.27;;
6864;SDS011;3471;49.678;8.388;2023-02-15T13:26:31;59.97;;;33.47;;
6864;SDS011;3471;49.678;8.388;2023-02-15T13:29:12;50.97;;;29.67;;
6864;SDS011;3471;49.678;8.388;2023-02-15T13:31:43;62.03;;;33.85;;
6864;SDS011;3471;49.678;8.388;2023-02-15T13:34:10;50.97;;;30.52;;
6864;SDS011;3471;49.678;8.388;2023-02-15T13:36:40;50.60;;;28.55;;
6864;SDS011;3471;49.678;8.388;2023-02-15T13:39:40;61.38;;;34.40;;
6864;SDS011;3471;49.678;8.388;2023-02-15T13:42:22;48.20;;;31.98;;
6864;SDS011;3471;49.678;8.388;2023-02-15T13:48:34;64.53;;;35.53;;
6864;SDS011;3471;49.678;8.388;2023-02-15T13:56:55;61.17;;;33.83;;
6864;SDS011;3471;49.678;8.388;2023-02-15T13:59:46;62.20;;;34.65;;
6864;SDS011;3471;49.678;8.388;2023-02-15T14:13:52;67.70;;;33.60;;
6864;SDS011;3471;49.678;8.388;2023-02-15T14:19:32;78.40;;;41.90;;
6864;SDS011;3471;49.678;8.388;2023-02-15T14:29:57;58.10;;;34.47;;
6864;SDS011;3471;49.678;8.388;2023-02-15T14:32:33;61.97;;;34.40;;
6864;SDS011;3471;49.678;8.388;2023-02-15T14:35:04;63.53;;;37.55;;
6864;SDS011;3471;49.678;8.388;2023-02-15T14:37:40;72.22;;;38.90;;
6864;SDS011;3471;49.678;8.388;2023-02-15T14:43:34;71.75;;;35.65;;
6864;SDS011;3471;49.678;8.388;2023-02-15T14:48:50;67.10;;;35.95;;
6864;SDS011;3471;49.678;8.388;2023-02-15T14:56:45;69.57;;;38.63;;
6864;SDS011;3471;49.678;8.388;2023-02-15T15:02:07;68.25;;;39.42;;
6864;SDS011;3471;49.678;8.388;2023-02-15T15:07:35;75.05;;;43.95;;
6864;SDS011;3471;49.678;8.388;2023-02-15T15:12:41;66.70;;;41.35;;
6864;SDS011;3471;49.678;8.388;2023-02-15T15:15:09;64.28;;;43.67;;
6864;SDS011;3471;49.678;8.388;2023-02-15T15:20:13;62.23;;;38.83;;
6864;SDS011;3471;49.678;8.388;2023-02-15T15:25:50;79.85;;;46.85;;
6864;SDS011;3471;49.678;8.388;2023-02-15T15:47:32;68.28;;;42.30;;
6864;SDS011;3471;49.678;8.388;2023-02-15T15:50:38;66.03;;;42.45;;
6864;SDS011;3471;49.678;8.388;2023-02-15T15:53:05;72.38;;;39.00;;
6864;SDS011;3471;49.678;8.388;2023-02-15T15:55:41;68.18;;;42.60;;
6864;SDS011;3471;49.678;8.388;2023-02-15T15:58:08;65.72;;;42.38;;
6864;SDS011;3471;49.678;8.388;2023-02-15T16:00:44;73.55;;;41.60;;
6864;SDS011;3471;49.678;8.388;2023-02-15T16:03:24;70.10;;;40.80;;
6864;SDS011;3471;49.678;8.388;2023-02-15T16:05:51;77.20;;;41.17;;
6864;SDS011;3471;49.678;8.388;2023-02-15T16:11:00;66.05;;;37.15;;
6864;SDS011;3471;49.678;8.388;2023-02-15T16:13:36;82.35;;;41.70;;
6864;SDS011;3471;49.678;8.388;2023-02-15T16:16:01;70.20;;;40.05;;
6864;SDS011;3471;49.678;8.388;2023-02-15T16:18:27;58.27;;;36.07;;
6864;SDS011;3471;49.678;8.388;2023-02-15T16:20:54;81.82;;;43.30;;
6864;SDS011;3471;49.678;8.388;2023-02-15T16:28:49;65.00;;;37.22;;
6864;SDS011;3471;49.678;8.388;2023-02-15T16:31:19;58.65;;;38.38;;
6864;SDS011;3471;49.678;8.388;2023-02-15T16:33:51;67.80;;;37.20;;
6864;SDS011;3471;49.678;8.388;2023-02-15T16:36:28;62.95;;;36.00;;
6864;SDS011;3471;49.678;8.388;2023-02-15T16:41:26;74.05;;;41.75;;
6864;SDS011;3471;49.678;8.388;2023-02-15T16:43:54;83.38;;;38.22;;
6864;SDS011;3471;49.678;8.388;2023-02-15T16:46:25;78.53;;;39.83;;
6864;SDS011;3471;49.678;8.388;2023-02-15T16:49:00;66.43;;;39.05;;
6864;SDS011;3471;49.678;8.388;2023-02-15T16:51:29;63.55;;;38.72;;
6864;SDS011;3471;49.678;8.388;2023-02-15T16:53:59;64.95;;;40.53;;
6864;SDS011;3471;49.678;8.388;2023-02-15T16:56:31;77.93;;;41.42;;
6864;SDS011;3471;49.678;8.388;2023-02-15T16:58:58;65.90;;;36.35;;
6864;SDS011;3471;49.678;8.388;2023-02-15T17:01:28;75.70;;;41.57;;
6864;SDS011;3471;49.678;8.388;2023-02-15T17:04:24;72.65;;;43.17;;
6864;SDS011;3471;49.678;8.388;2023-02-15T17:07:03;77.47;;;40.05;;
6864;SDS011;3471;49.678;8.388;2023-02-15T17:09:32;90.95;;;43.78;;
6864;SDS011;3471;49.678;8.388;2023-02-15T17:11:58;84.20;;;39.97;;
6864;SDS011;3471;49.678;8.388;2023-02-15T17:14:27;71.55;;;39.58;;
6864;SDS011;3471;49.678;8.388;2023-02-15T17:16:58;74.70;;;41.90;;
6864;SDS011;3471;49.678;8.388;2023-02-15T17:19:33;77.45;;;41.30;;
6864;SDS011;3471;49.678;8.388;2023-02-15T17:22:16;77.35;;;41.75;;
6864;SDS011;3471;49.678;8.388;2023-02-15T17:24:48;72.97;;;44.40;;
6864;SDS011;3471;49.678;8.388;2023-02-15T17:27:22;75.10;;;42.65;;
6864;SDS011;3471;49.678;8.388;2023-02-15T17:29:51;84.53;;;41.67;;
6864;SDS011;3471;49.678;8.388;2023-02-15T17:32:22;99.35;;;45.50;;
6864;SDS011;3471;49.678;8.388;2023-02-15T17:37:26;80.78;;;42.03;;
6864;SDS011;3471;49.678;8.388;2023-02-15T17:39:56;95.95;;;46.28;;
6864;SDS011;3471;49.678;8.388;2023-02-15T17:42:22;90.30;;;42.67;;
6864;SDS011;3471;49.678;8.388;2023-02-15T17:44:48;90.15;;;45.08;;
6864;SDS011;3471;49.678;8.388;2023-02-15T17:47:15;110.00;;;47.45;;
6864;SDS011;3471;49.678;8.388;2023-02-15T17:49:44;84.38;;;48.88;;
6864;SDS011;3471;49.678;8.388;2023-02-15T17:52:13;96.50;;;48.80;;
6864;SDS011;3471;49.678;8.388;2023-02-15T17:54:40;69.15;;;38.72;;
6864;SDS011;3471;49.678;8.388;2023-02-15T17:57:25;84.45;;;42.40;;
6864;SDS011;3471;49.678;8.388;2023-02-15T17:59:52;83.22;;;37.03;;
6864;SDS011;3471;49.678;8.388;2023-02-15T18:02:36;111.80;;;43.75;;
6864;SDS011;3471;49.678;8.388;2023-02-15T18:05:21;78.78;;;42.05;;
6864;SDS011;3471;49.678;8.388;2023-02-15T18:08:15;86.63;;;41.92;;
6864;SDS011;3471;49.678;8.388;2023-02-15T18:11:03;84.65;;;39.00;;
6864;SDS011;3471;49.678;8.388;2023-02-15T18:13:47;86.40;;;39.30;;
6864;SDS011;3471;49.678;8.388;2023-02-15T18:16:13;73.33;;;36.93;;
6864;SDS011;3471;49.678;8.388;2023-02-15T18:18:42;76.13;;;36.03;;
6864;SDS011;3471;49.678;8.388;2023-02-15T18:21:10;67.93;;;32.50;;
6864;SDS011;3471;49.678;8.388;2023-02-15T18:23:36;55.78;;;34.72;;
6864;SDS011;3471;49.678;8.388;2023-02-15T18:26:02;56.38;;;30.48;;
6864;SDS011;3471;49.678;8.388;2023-02-15T18:28:27;68.15;;;34.33;;
6864;SDS011;3471;49.678;8.388;2023-02-15T18:30:53;68.93;;;32.03;;
6864;SDS011;3471;49.678;8.388;2023-02-15T18:33:24;55.08;;;31.02;;